Time;durP1;ratioP1;P1;durP2;ratioP2;P2;SDS_P1;SDS_P2;PMS_P1;PMS_P2;Temp;Humidity;BMP_temperature;BMP_pressure;BME280_temperature;BME280_humidity;BME280_pressure;Samples;Min_cycle;Max_cycle;Signal;HPM_P1;HPM_P2
2024/04/12 00:02:08;;;;;;;38.47;32.22;;;13.30;99.90;;;;;;5373308;26;20003;-74
2024/04/12 00:04:36;;;;;;;35.40;31.67;;;13.30;99.90;;;;;;5383253;26;19999;-72
2024/04/12 00:07:13;;;;;;;33.88;30.38;;;13.30;99.90;;;;;;5357034;26;20553;-74
2024/04/12 00:09:43;;;;;;;33.90;30.15;;;13.30;99.90;;;;;;5319932;26;20004;-74
2024/04/12 00:12:11;;;;;;;35.38;31.58;;;13.30;99.90;;;;;;5372284;26;20000;-74
2024/04/12 00:14:43;;;;;;;34.58;31.00;;;13.30;99.90;;;;;;5348860;26;20551;-74
2024/04/12 00:17:15;;;;;;;35.90;32.15;;;13.30;99.90;;;;;;5343014;26;20021;-74
2024/04/12 00:19:45;;;;;;;39.42;33.58;;;13.30;99.90;;;;;;5386259;26;20742;-73
2024/04/12 00:22:14;;;;;;;39.45;34.10;;;13.40;99.90;;;;;;5391679;26;20003;-74
2024/04/12 00:24:42;;;;;;;39.95;32.85;;;13.30;99.90;;;;;;5383874;26;20028;-74
2024/04/12 00:27:09;;;;;;;36.38;32.42;;;13.30;99.90;;;;;;5352289;26;20514;-73
2024/04/12 00:29:37;;;;;;;37.47;32.35;;;13.30;99.90;;;;;;5349743;26;20004;-73
2024/04/12 00:32:15;;;;;;;40.15;33.00;;;13.30;99.90;;;;;;5354662;26;20011;-75
2024/04/12 00:34:51;;;;;;;39.13;32.30;;;13.20;99.90;;;;;;5373405;26;20580;-74
2024/04/12 00:37:23;;;;;;;35.88;31.05;;;13.20;99.90;;;;;;5383773;26;20043;-73
2024/04/12 00:39:53;;;;;;;38.13;31.13;;;13.10;99.90;;;;;;5380118;26;20022;-74
2024/04/12 00:42:31;;;;;;;40.30;32.50;;;13.10;99.90;;;;;;5411236;26;20010;-74
2024/04/12 00:45:11;;;;;;;35.45;31.45;;;13.20;99.90;;;;;;5373975;26;20000;-74
2024/04/12 00:47:41;;;;;;;37.15;32.03;;;13.10;99.90;;;;;;5378729;26;20007;-72
2024/04/12 00:50:15;;;;;;;37.85;32.30;;;13.20;99.90;;;;;;5380876;26;19999;-74
2024/04/12 00:52:43;;;;;;;35.42;30.35;;;13.10;99.90;;;;;;5381680;26;20053;-74
2024/04/12 00:55:13;;;;;;;37.88;31.27;;;13.10;99.90;;;;;;5380267;26;20012;-74
2024/04/12 00:57:40;;;;;;;34.95;31.15;;;13.20;99.90;;;;;;5379369;26;20015;-75
2024/04/12 01:00:12;;;;;;;34.92;31.20;;;13.20;99.90;;;;;;5380314;26;19995;-75
2024/04/12 01:02:46;;;;;;;39.35;31.92;;;13.20;99.90;;;;;;5370423;26;20055;-75
2024/04/12 01:08:10;;;;;;;40.65;31.80;;;13.20;99.90;;;;;;5393356;26;19999;-74
2024/04/12 01:10:37;;;;;;;37.20;32.15;;;13.20;99.90;;;;;;5380540;26;20004;-75
2024/04/12 01:13:05;;;;;;;41.53;33.47;;;13.20;99.90;;;;;;5379646;26;20000;-74
2024/04/12 01:15:37;;;;;;;40.60;32.75;;;13.20;99.90;;;;;;5386430;26;20026;-74
2024/04/12 01:18:13;;;;;;;39.72;32.53;;;13.10;99.90;;;;;;5345771;26;20019;-74
2024/04/12 01:20:43;;;;;;;43.25;33.20;;;13.10;99.90;;;;;;5377951;26;20000;-73
2024/04/12 01:23:15;;;;;;;37.97;33.08;;;13.20;99.90;;;;;;5384557;26;20003;-74
2024/04/12 01:25:44;;;;;;;43.33;34.45;;;13.20;99.90;;;;;;5377449;26;19999;-74
2024/04/12 01:28:15;;;;;;;39.33;32.40;;;13.30;99.90;;;;;;5342904;26;20603;-74
2024/04/12 01:30:46;;;;;;;37.15;32.33;;;13.30;99.90;;;;;;5383975;26;20017;-74
2024/04/12 01:33:14;;;;;;;42.33;33.47;;;13.20;99.90;;;;;;5375296;26;20412;-74
2024/04/12 01:35:44;;;;;;;41.55;31.73;;;13.10;99.90;;;;;;5376720;26;20730;-73
2024/04/12 01:38:16;;;;;;;37.53;31.65;;;13.10;99.90;;;;;;5384574;26;20002;-74
2024/04/12 01:40:56;;;;;;;39.33;31.80;;;13.10;99.90;;;;;;5406818;26;20011;-74
2024/04/12 01:43:27;;;;;;;45.53;30.55;;;13.10;99.90;;;;;;5402624;26;20010;-75
2024/04/12 01:45:55;;;;;;;37.67;30.40;;;13.00;99.90;;;;;;5381241;26;21249;-75
2024/04/12 01:48:22;;;;;;;36.63;28.88;;;13.00;99.90;;;;;;5347617;26;20634;-75
2024/04/12 01:50:51;;;;;;;31.35;28.00;;;13.10;99.90;;;;;;5342394;26;20006;-75
2024/04/12 01:53:21;;;;;;;29.42;25.75;;;13.10;99.90;;;;;;5326069;26;20838;-75
2024/04/12 01:55:50;;;;;;;26.92;24.15;;;13.10;99.90;;;;;;5352683;26;20007;-73
2024/04/12 01:58:21;;;;;;;28.63;23.88;;;13.00;99.90;;;;;;5368496;26;20468;-73
2024/04/12 02:00:51;;;;;;;27.08;24.42;;;13.00;99.90;;;;;;5378793;26;20121;-75
2024/04/12 02:03:18;;;;;;;26.00;23.35;;;13.00;99.90;;;;;;5373331;26;20008;-74
2024/04/12 02:05:48;;;;;;;26.38;24.10;;;13.00;99.90;;;;;;5357061;26;20000;-73
2024/04/12 02:08:19;;;;;;;26.02;23.30;;;13.00;99.90;;;;;;5384596;26;20003;-74
2024/04/12 02:10:51;;;;;;;24.77;22.48;;;13.00;99.90;;;;;;5375081;26;20728;-73
2024/04/12 02:13:20;;;;;;;26.08;23.52;;;13.00;99.90;;;;;;5370377;26;20011;-75
2024/04/12 02:15:51;;;;;;;26.63;24.08;;;13.00;99.90;;;;;;5381269;26;20003;-74
2024/04/12 02:18:23;;;;;;;26.15;23.58;;;13.00;99.90;;;;;;5355788;26;19995;-74
2024/04/12 02:20:52;;;;;;;26.38;23.67;;;13.00;99.90;;;;;;5387143;26;20003;-74
2024/04/12 02:23:23;;;;;;;25.25;22.77;;;13.00;99.90;;;;;;5382719;26;20003;-75
2024/04/12 02:25:50;;;;;;;26.27;23.58;;;13.00;99.90;;;;;;5384183;26;20341;-74
2024/04/12 02:28:18;;;;;;;26.10;23.52;;;13.00;99.90;;;;;;5382367;26;20007;-74
2024/04/12 02:30:54;;;;;;;25.58;22.88;;;12.90;99.90;;;;;;5355932;26;19999;-74
2024/04/12 02:33:30;;;;;;;28.10;25.20;;;13.00;99.90;;;;;;5373819;26;20000;-75
2024/04/12 02:36:10;;;;;;;27.30;24.70;;;13.00;99.90;;;;;;5384067;26;19995;-74
2024/04/12 02:38:41;;;;;;;28.88;26.17;;;13.10;99.90;;;;;;5386553;26;20008;-74
2024/04/12 02:41:16;;;;;;;29.73;25.20;;;13.00;99.90;;;;;;5348218;26;20003;-74
2024/04/12 02:43:54;;;;;;;26.50;23.73;;;13.00;99.90;;;;;;5376706;26;20480;-74
2024/04/12 02:46:23;;;;;;;24.80;22.45;;;13.00;99.90;;;;;;5383550;26;20602;-75
2024/04/12 02:48:52;;;;;;;25.48;23.17;;;13.00;99.90;;;;;;5392112;26;20002;-74
2024/04/12 02:51:22;;;;;;;26.95;24.42;;;12.90;99.90;;;;;;5391440;26;20021;-75
2024/04/12 02:53:51;;;;;;;25.35;22.83;;;13.00;99.90;;;;;;5389616;26;20011;-74
2024/04/12 02:56:24;;;;;;;26.85;24.25;;;13.00;99.90;;;;;;5381048;26;20003;-74
2024/04/12 02:58:52;;;;;;;26.13;23.58;;;13.00;99.90;;;;;;5381900;26;20004;-73
2024/04/12 03:01:23;;;;;;;26.85;24.05;;;13.00;99.90;;;;;;5388012;26;20005;-73
2024/04/12 03:03:54;;;;;;;25.42;22.98;;;13.00;99.90;;;;;;5343467;26;20012;-74
2024/04/12 03:06:24;;;;;;;24.50;22.20;;;13.00;99.90;;;;;;5383471;26;20003;-75
2024/04/12 03:08:52;;;;;;;23.20;21.10;;;12.90;99.90;;;;;;5397535;26;20010;-74
2024/04/12 03:11:29;;;;;;;23.92;21.73;;;12.90;99.90;;;;;;5382340;26;20021;-74
2024/04/12 03:14:03;;;;;;;23.05;21.10;;;12.90;99.90;;;;;;5395513;26;20015;-75
2024/04/12 03:16:31;;;;;;;22.42;20.10;;;12.80;99.90;;;;;;5383662;26;20007;-74
2024/04/12 03:19:07;;;;;;;22.92;20.75;;;12.80;99.90;;;;;;5389984;26;20574;-74
2024/04/12 03:21:35;;;;;;;23.15;20.63;;;12.80;99.90;;;;;;5394833;26;19999;-74
2024/04/12 03:24:04;;;;;;;22.60;20.55;;;12.80;99.90;;;;;;5391730;26;20315;-74
2024/04/12 03:26:32;;;;;;;23.67;21.48;;;12.80;99.90;;;;;;5392754;26;19996;-74
2024/04/12 03:29:03;;;;;;;23.42;21.15;;;12.80;99.90;;;;;;5389985;26;20039;-74
2024/04/12 03:31:33;;;;;;;22.35;20.33;;;12.80;99.90;;;;;;5399590;26;20861;-75
2024/04/12 03:34:00;;;;;;;23.42;21.17;;;12.80;99.90;;;;;;5360511;26;19991;-75
2024/04/12 03:41:51;;;;;;;24.98;20.33;;;12.90;99.90;;;;;;5339027;26;20631;-73
2024/04/12 03:44:19;;;;;;;22.23;20.17;;;12.80;99.90;;;;;;5345098;26;20005;-75
2024/04/12 03:46:50;;;;;;;22.70;20.55;;;12.90;99.90;;;;;;5375342;26;20027;-74
2024/04/12 03:49:21;;;;;;;22.55;20.52;;;12.90;99.90;;;;;;5380921;26;20422;-73
2024/04/12 03:51:56;;;;;;;23.00;20.83;;;12.90;99.90;;;;;;5333003;26;20037;-74
2024/04/12 03:54:25;;;;;;;23.92;21.45;;;12.90;99.90;;;;;;5338823;26;20004;-74
2024/04/12 03:56:56;;;;;;;22.42;20.40;;;12.90;99.90;;;;;;5322373;26;20119;-74
2024/04/12 03:59:29;;;;;;;22.00;20.05;;;12.90;99.90;;;;;;5349029;26;20008;-74
2024/04/12 04:01:59;;;;;;;22.10;20.13;;;12.80;99.90;;;;;;5343006;26;20471;-75
2024/04/12 04:04:37;;;;;;;22.50;20.38;;;12.80;99.90;;;;;;5345252;26;20008;-74
2024/04/12 04:07:05;;;;;;;22.80;20.52;;;12.80;99.90;;;;;;5353156;26;20073;-74
2024/04/12 04:09:33;;;;;;;23.10;20.98;;;12.90;99.90;;;;;;5370183;26;20027;-74
2024/04/12 04:12:02;;;;;;;23.85;21.35;;;12.90;99.90;;;;;;5352029;26;20003;-74
2024/04/12 04:14:32;;;;;;;24.13;21.60;;;12.90;99.90;;;;;;5345505;26;20078;-74
2024/04/12 04:17:03;;;;;;;22.90;20.90;;;12.90;99.90;;;;;;5380743;26;20073;-75
2024/04/12 04:19:35;;;;;;;23.55;21.20;;;12.90;99.90;;;;;;5383688;26;20927;-74
2024/04/12 04:22:04;;;;;;;28.10;22.95;;;12.90;99.90;;;;;;5399406;26;19998;-75
2024/04/12 04:24:34;;;;;;;23.80;21.27;;;12.90;99.90;;;;;;5383403;26;20479;-74
2024/04/12 04:27:08;;;;;;;25.42;22.73;;;12.90;99.90;;;;;;5380744;26;20004;-74
2024/04/12 04:29:37;;;;;;;;;;;13.00;99.90;;;;;;5383111;26;20004;-74
2024/04/12 04:32:09;;;;;;;25.05;22.67;;;13.00;99.90;;;;;;5410883;26;20366;-74
2024/04/12 04:34:36;;;;;;;24.73;22.42;;;12.90;99.90;;;;;;5394171;26;19996;-75
2024/04/12 04:37:05;;;;;;;25.05;22.63;;;12.90;99.90;;;;;;5387476;26;20122;-74
2024/04/12 04:39:44;;;;;;;26.58;23.20;;;12.80;99.90;;;;;;5389212;26;20035;-75
2024/04/12 04:42:13;;;;;;;24.88;22.27;;;12.80;99.90;;;;;;5389722;26;20261;-76
2024/04/12 04:44:41;;;;;;;24.15;21.73;;;12.80;99.90;;;;;;5361217;26;20000;-75
2024/04/12 04:47:09;;;;;;;24.77;22.13;;;12.80;99.90;;;;;;5360063;26;20003;-76
2024/04/12 04:49:38;;;;;;;24.45;22.02;;;12.80;99.90;;;;;;5393315;26;20027;-76
2024/04/12 04:52:09;;;;;;;26.33;23.63;;;12.80;99.90;;;;;;5394443;26;20543;-76
2024/04/12 04:54:39;;;;;;;26.08;23.63;;;12.80;99.90;;;;;;5386780;26;20035;-76
2024/04/12 04:57:06;;;;;;;25.30;22.67;;;12.80;99.90;;;;;;5380393;26;20014;-75
2024/04/12 04:59:35;;;;;;;24.70;22.25;;;12.80;99.90;;;;;;5371873;26;20007;-76
2024/04/12 05:02:03;;;;;;;26.95;22.55;;;12.80;99.90;;;;;;5378034;26;20058;-74
2024/04/12 05:04:32;;;;;;;27.27;24.73;;;12.80;99.90;;;;;;5374354;26;20000;-76
2024/04/12 05:06:59;;;;;;;25.10;22.73;;;12.80;99.90;;;;;;5408603;26;20003;-75
2024/04/12 05:09:27;;;;;;;24.15;21.80;;;12.80;99.90;;;;;;5377626;26;20015;-76
2024/04/12 05:11:56;;;;;;;24.48;22.15;;;12.80;99.90;;;;;;5381826;26;20007;-76
2024/04/12 05:17:15;;;;;;;26.00;22.70;;;12.80;99.90;;;;;;5390569;26;19999;-75
2024/04/12 05:19:47;;;;;;;27.52;21.85;;;12.80;99.90;;;;;;5373468;26;20714;-74
2024/04/12 05:22:19;;;;;;;23.80;21.38;;;12.80;99.90;;;;;;5384573;26;20014;-78
2024/04/12 05:24:46;;;;;;;25.83;22.50;;;12.90;99.90;;;;;;5393936;26;20013;-75
2024/04/12 05:27:14;;;;;;;25.00;22.58;;;12.80;99.90;;;;;;5385546;26;20040;-75
2024/04/12 05:29:45;;;;;;;25.80;23.42;;;12.90;99.90;;;;;;5374762;26;20011;-75
2024/04/12 05:32:12;;;;;;;27.15;24.80;;;12.90;99.90;;;;;;5371035;26;20012;-75
2024/04/12 05:34:45;;;;;;;29.58;26.80;;;12.90;99.90;;;;;;5362772;26;22384;-76
2024/04/12 05:37:15;;;;;;;28.83;26.23;;;12.90;99.90;;;;;;5341593;26;20008;-75
2024/04/12 05:39:42;;;;;;;35.50;31.67;;;12.90;99.90;;;;;;5348856;26;20005;-76
2024/04/12 05:42:09;;;;;;;36.75;32.90;;;12.90;99.90;;;;;;5356889;26;19987;-76
2024/04/12 05:44:37;;;;;;;36.10;32.63;;;12.90;99.90;;;;;;5336738;26;20012;-76
2024/04/12 05:47:06;;;;;;;37.75;33.78;;;12.90;99.90;;;;;;5316696;26;20010;-74
2024/04/12 05:49:34;;;;;;;39.17;34.53;;;12.90;99.90;;;;;;5319784;26;20004;-75
2024/04/12 05:52:02;;;;;;;35.70;32.20;;;12.80;99.90;;;;;;5321318;26;21169;-75
2024/04/12 05:54:51;;;;;;;33.15;29.77;;;12.90;99.90;;;;;;5341942;26;20004;-73
2024/04/12 05:57:21;;;;;;;32.45;29.05;;;12.80;99.90;;;;;;5344697;26;20007;-78
2024/04/12 05:59:50;;;;;;;32.80;29.67;;;12.90;99.90;;;;;;5341509;26;20296;-75
2024/04/12 06:02:18;;;;;;;32.25;28.92;;;12.90;99.90;;;;;;5338993;26;20035;-74
2024/04/12 06:04:47;;;;;;;31.98;29.02;;;12.90;99.90;;;;;;5354545;26;20004;-74
2024/04/12 06:07:14;;;;;;;31.60;28.58;;;12.80;99.90;;;;;;5357599;26;20003;-74
2024/04/12 06:09:47;;;;;;;32.63;29.38;;;12.90;99.90;;;;;;5354070;26;20722;-75
2024/04/12 06:12:16;;;;;;;32.67;29.05;;;12.90;99.90;;;;;;5353932;26;20012;-76
2024/04/12 06:14:45;;;;;;;33.15;29.30;;;12.90;99.90;;;;;;5348482;26;20001;-75
2024/04/12 06:17:12;;;;;;;31.00;28.02;;;13.00;99.90;;;;;;5360470;26;20073;-74
2024/04/12 06:19:40;;;;;;;30.10;27.42;;;13.10;99.90;;;;;;5334869;26;20014;-75
2024/04/12 06:22:13;;;;;;;29.77;26.88;;;13.20;99.90;;;;;;5347174;26;20008;-75
2024/04/12 06:24:48;;;;;;;30.85;27.88;;;13.20;99.90;;;;;;5341906;26;20578;-74
2024/04/12 06:27:29;;;;;;;29.75;27.05;;;13.30;99.90;;;;;;5403811;26;20012;-77
2024/04/12 06:30:00;;;;;;;29.98;27.23;;;13.20;99.90;;;;;;5353350;26;20514;-77
2024/04/12 06:32:29;;;;;;;29.75;27.13;;;13.20;99.90;;;;;;5379986;26;19995;-74
2024/04/12 06:34:56;;;;;;;30.20;27.67;;;13.20;99.90;;;;;;5384441;26;20000;-75
2024/04/12 06:37:24;;;;;;;30.35;27.90;;;13.20;99.90;;;;;;5374008;26;20026;-74
2024/04/12 06:39:55;;;;;;;31.58;28.77;;;13.30;99.90;;;;;;5390367;26;20027;-74
2024/04/12 06:42:23;;;;;;;33.00;30.25;;;13.30;99.90;;;;;;5373684;26;20036;-75
2024/04/12 06:44:50;;;;;;;32.38;29.50;;;13.30;99.90;;;;;;5382020;26;20018;-76
2024/04/12 06:47:18;;;;;;;33.00;30.05;;;13.30;99.90;;;;;;5361901;26;20369;-74
2024/04/12 06:49:46;;;;;;;32.75;30.65;;;13.40;99.90;;;;;;5353788;26;20000;-75
2024/04/12 06:52:14;;;;;;;31.73;29.05;;;13.40;99.90;;;;;;5383029;26;20089;-74
2024/04/12 06:54:42;;;;;;;30.58;28.35;;;13.40;99.90;;;;;;5384849;26;19999;-75
2024/04/12 06:57:25;;;;;;;31.08;28.60;;;13.40;99.90;;;;;;5366002;26;20026;-76
2024/04/12 06:59:53;;;;;;;30.40;27.75;;;13.40;99.90;;;;;;5378574;26;20010;-75
2024/04/12 07:02:25;;;;;;;31.63;29.15;;;13.40;99.90;;;;;;5372463;26;20306;-74
2024/04/12 07:04:56;;;;;;;30.05;27.45;;;13.50;99.90;;;;;;5350376;26;20015;-74
2024/04/12 07:07:24;;;;;;;30.95;28.58;;;13.50;99.90;;;;;;5368500;26;20585;-73
2024/04/12 07:09:57;;;;;;;31.70;29.30;;;13.50;99.90;;;;;;5366004;26;20829;-74
2024/04/12 07:12:37;;;;;;;33.50;30.05;;;13.50;99.90;;;;;;5365059;26;20838;-73
2024/04/12 07:15:09;;;;;;;34.30;31.60;;;13.50;99.90;;;;;;5381240;26;20080;-74
2024/04/12 07:17:41;;;;;;;32.92;30.10;;;13.60;99.90;;;;;;5387850;26;20003;-74
2024/04/12 07:20:21;;;;;;;31.50;28.90;;;13.60;99.90;;;;;;5382508;26;20002;-73
2024/04/12 07:22:55;;;;;;;29.88;27.55;;;13.70;99.90;;;;;;5371278;26;20040;-74
2024/04/12 07:25:23;;;;;;;31.02;28.50;;;13.70;99.90;;;;;;5348985;26;20023;-73
2024/04/12 07:27:53;;;;;;;29.30;26.30;;;13.70;99.90;;;;;;5379262;26;20365;-74
2024/04/12 07:30:21;;;;;;;26.95;24.40;;;13.80;99.90;;;;;;5376778;26;20023;-75
2024/04/12 07:32:50;;;;;;;25.88;24.13;;;13.80;99.90;;;;;;5382232;26;20021;-75
2024/04/12 07:35:28;;;;;;;28.27;26.25;;;13.80;99.90;;;;;;5380859;26;20718;-74
2024/04/12 07:37:59;;;;;;;30.73;28.92;;;13.80;99.90;;;;;;5375937;26;20003;-75
2024/04/12 07:40:31;;;;;;;31.30;28.80;;;13.90;99.90;;;;;;5395904;26;20007;-74
2024/04/12 07:43:11;;;;;;;26.48;24.50;;;14.00;99.90;;;;;;5386266;26;19995;-74
2024/04/12 07:45:44;;;;;;;26.23;24.38;;;14.00;99.90;;;;;;5374795;26;20076;-74
2024/04/12 07:48:11;;;;;;;25.83;24.02;;;14.10;99.90;;;;;;5364008;26;20022;-75
2024/04/12 07:50:41;;;;;;;25.98;24.13;;;14.10;99.90;;;;;;5392595;26;20408;-72
2024/04/12 07:53:21;;;;;;;25.10;23.40;;;14.10;99.90;;;;;;5385201;26;20008;-75
2024/04/12 07:56:00;;;;;;;26.73;24.75;;;14.10;99.90;;;;;;5373296;26;20051;-74
2024/04/12 07:58:28;;;;;;;26.85;24.85;;;14.10;99.90;;;;;;5346267;26;20008;-75
2024/04/12 08:01:09;;;;;;;27.88;25.67;;;14.00;99.90;;;;;;5367446;26;20680;-74
2024/04/12 08:03:38;;;;;;;26.92;24.83;;;14.10;99.90;;;;;;5378290;26;20080;-73
2024/04/12 08:06:18;;;;;;;27.70;25.50;;;14.40;99.90;;;;;;5379763;26;20062;-74
2024/04/12 08:08:46;;;;;;;26.88;24.88;;;14.50;99.90;;;;;;5355472;26;20073;-74
2024/04/12 08:11:34;;;;;;;25.98;24.17;;;14.50;99.90;;;;;;5366313;26;20006;-74
2024/04/12 08:14:08;;;;;;;25.85;23.80;;;14.60;99.90;;;;;;5352204;26;20001;-73
2024/04/12 08:16:37;;;;;;;26.50;24.58;;;14.50;99.90;;;;;;5354878;26;20001;-73
2024/04/12 08:19:14;;;;;;;25.73;23.63;;;14.60;99.90;;;;;;5368389;26;20012;-75
2024/04/12 08:21:43;;;;;;;24.35;22.75;;;14.50;99.90;;;;;;5356226;26;20000;-73
2024/04/12 08:24:15;;;;;;;25.30;23.40;;;14.40;99.90;;;;;;5348212;26;20081;-74
2024/04/12 08:26:45;;;;;;;25.40;23.52;;;14.50;99.90;;;;;;5345148;26;20034;-73
2024/04/12 08:29:23;;;;;;;24.98;23.02;;;14.50;99.90;;;;;;5345927;26;20004;-74
2024/04/12 08:34:44;;;;;;;25.02;23.33;;;14.60;99.90;;;;;;5354745;26;20000;-77
2024/04/12 08:37:13;;;;;;;27.55;25.52;;;14.50;99.90;;;;;;5427367;26;20018;-73
2024/04/12 08:39:53;;;;;;;25.70;24.00;;;14.60;99.90;;;;;;5387709;26;20020;-76
2024/04/12 08:42:28;;;;;;;25.55;23.70;;;14.70;99.90;;;;;;5316981;26;20000;-76
2024/04/12 08:44:59;;;;;;;24.60;22.98;;;14.80;99.90;;;;;;5348803;26;20064;-74
2024/04/12 08:50:02;;;;;;;25.02;23.23;;;14.70;99.90;;;;;;5388206;26;20000;-75
2024/04/12 08:52:42;;;;;;;26.55;24.52;;;14.80;99.90;;;;;;5352376;26;20002;-75
2024/04/12 08:55:14;;;;;;;26.98;25.10;;;14.70;99.90;;;;;;5404026;26;20013;-75
2024/04/12 08:57:47;;;;;;;28.15;26.15;;;14.70;99.90;;;;;;5373185;26;20015;-75
2024/04/12 09:00:18;;;;;;;29.67;27.58;;;14.70;99.90;;;;;;5380424;26;20007;-77
2024/04/12 09:02:58;;;;;;;27.17;25.27;;;14.60;99.90;;;;;;5340880;26;21050;-74
2024/04/12 09:05:27;;;;;;;29.92;27.80;;;14.60;99.90;;;;;;5360543;26;20015;-75
2024/04/12 09:07:59;;;;;;;28.55;26.55;;;14.60;99.90;;;;;;5388047;26;20044;-75
2024/04/12 09:10:36;;;;;;;29.63;27.60;;;14.70;99.90;;;;;;5378058;26;20553;-79
2024/04/12 09:13:08;;;;;;;31.02;28.65;;;14.60;99.90;;;;;;5347167;26;20043;-75
2024/04/12 09:15:42;;;;;;;29.95;27.30;;;14.70;99.90;;;;;;5331837;26;20008;-76
2024/04/12 09:18:13;;;;;;;30.27;27.58;;;14.70;99.90;;;;;;5348767;26;20012;-72
2024/04/12 09:20:44;;;;;;;30.42;27.98;;;14.80;99.90;;;;;;5318425;26;20012;-72
2024/04/12 09:23:16;;;;;;;31.73;28.95;;;14.80;99.90;;;;;;5329942;26;20000;-74
2024/04/12 09:25:54;;;;;;;31.63;28.90;;;14.80;99.90;;;;;;5327318;26;20011;-74
2024/04/12 09:28:32;;;;;;;32.33;29.63;;;14.80;99.90;;;;;;5347144;26;20004;-76
2024/04/12 09:33:50;;;;;;;32.97;30.00;;;14.80;99.90;;;;;;5356302;26;20089;-74
2024/04/12 09:36:55;;;;;;;33.65;30.80;;;14.80;99.90;;;;;;5370339;26;20021;-74
2024/04/12 09:39:23;;;;;;;33.67;30.77;;;14.70;99.90;;;;;;5380589;26;19999;-74
2024/04/12 09:41:56;;;;;;;33.40;30.38;;;14.70;99.90;;;;;;5382317;26;20003;-75
2024/04/12 09:44:38;;;;;;;34.95;31.65;;;14.80;99.90;;;;;;5392239;26;19995;-74
2024/04/12 10:37:53;;;;;;;35.25;31.95;;;15.30;99.90;;;;;;5381628;26;20020;-75
2024/04/12 10:40:22;;;;;;;30.42;28.15;;;15.40;99.90;;;;;;5347258;26;19999;-75
2024/04/12 10:42:52;;;;;;;34.88;32.47;;;15.70;99.90;;;;;;5349526;26;20437;-76
2024/04/12 10:45:20;;;;;;;29.77;27.98;;;15.90;99.90;;;;;;5377146;26;20022;-76
2024/04/12 10:47:48;;;;;;;32.28;30.17;;;16.10;99.90;;;;;;5390089;26;19999;-75
2024/04/12 10:50:19;;;;;;;30.27;28.38;;;16.20;99.90;;;;;;5384677;26;20077;-76
2024/04/12 10:52:47;;;;;;;28.30;26.60;;;16.40;99.90;;;;;;5385185;26;19995;-78
2024/04/12 10:55:19;;;;;;;28.63;26.75;;;16.40;99.90;;;;;;5387957;26;20613;-75
2024/04/12 10:57:49;;;;;;;28.00;26.30;;;16.30;99.90;;;;;;5373288;26;20022;-74
2024/04/12 11:00:28;;;;;;;28.27;26.38;;;16.40;99.90;;;;;;5388819;26;20813;-76
2024/04/12 11:02:59;;;;;;;28.17;26.27;;;16.30;99.90;;;;;;5365969;26;22438;-75
2024/04/12 11:08:06;;;;;;;29.77;27.35;;;16.10;99.90;;;;;;5396758;26;20000;-74
2024/04/12 11:11:15;;;;;;;30.85;28.30;;;16.00;99.90;;;;;;5392131;26;20509;-75
2024/04/12 11:13:52;;;;;;;30.40;28.33;;;16.00;99.90;;;;;;5353137;26;20023;-74
2024/04/12 11:33:04;;;;;;;25.30;23.70;;;15.90;99.90;;;;;;5391080;26;20029;-76
2024/04/12 11:35:35;;;;;;;25.20;23.40;;;16.00;99.90;;;;;;5384387;26;19996;-75
2024/04/12 11:38:04;;;;;;;28.98;27.15;;;16.20;99.90;;;;;;5383166;26;20445;-75
2024/04/12 11:40:37;;;;;;;29.52;27.70;;;16.30;99.90;;;;;;5391285;26;20307;-76
2024/04/12 11:43:06;;;;;;;29.10;27.25;;;16.60;99.90;;;;;;5385131;26;20202;-75
2024/04/12 11:45:40;;;;;;;29.13;26.92;;;16.70;99.90;;;;;;5375086;26;20011;-76
2024/04/12 11:48:14;;;;;;;27.73;26.13;;;16.80;99.90;;;;;;5391921;26;20006;-74
2024/04/12 11:50:43;;;;;;;28.85;27.15;;;16.80;99.90;;;;;;5375443;26;20176;-75
2024/04/12 11:53:11;;;;;;;29.13;27.00;;;16.80;99.90;;;;;;5393657;26;20007;-75
2024/04/12 11:55:41;;;;;;;29.70;27.45;;;16.90;99.90;;;;;;5386181;26;20007;-76
2024/04/12 11:58:08;;;;;;;28.75;26.80;;;16.80;99.90;;;;;;5375822;26;20578;-75
2024/04/12 12:00:37;;;;;;;29.08;27.17;;;16.90;99.90;;;;;;5382770;26;20007;-77
2024/04/12 12:03:04;;;;;;;27.40;25.60;;;16.70;99.90;;;;;;5379495;26;20027;-75
2024/04/12 12:05:37;;;;;;;29.80;27.90;;;16.60;99.90;;;;;;5379747;26;20089;-75
2024/04/12 12:08:05;;;;;;;30.90;28.83;;;16.70;99.90;;;;;;5360132;26;19999;-75
2024/04/12 12:10:36;;;;;;;30.73;28.50;;;16.80;99.90;;;;;;5392043;26;20018;-75
2024/04/12 12:13:05;;;;;;;32.55;30.17;;;17.00;99.90;;;;;;5380166;26;20004;-76
2024/04/12 12:15:33;;;;;;;31.83;29.67;;;17.00;99.90;;;;;;5373882;26;20018;-76
2024/04/12 12:18:04;;;;;;;30.95;28.88;;;17.10;99.90;;;;;;5345886;26;20692;-75
2024/04/12 12:20:32;;;;;;;29.17;26.98;;;17.20;99.90;;;;;;5388161;26;21099;-76
2024/04/12 12:22:59;;;;;;;28.77;26.60;;;17.10;99.90;;;;;;5377386;26;20681;-76
2024/04/12 12:25:27;;;;;;;30.58;28.27;;;17.20;99.90;;;;;;5385637;26;20007;-75
2024/04/12 12:27:56;;;;;;;30.15;28.10;;;17.10;99.90;;;;;;5337398;26;20008;-75
2024/04/12 12:30:24;;;;;;;30.35;28.20;;;17.00;99.90;;;;;;5341000;26;20860;-76
2024/04/12 12:32:52;;;;;;;30.75;28.10;;;16.80;99.90;;;;;;5370017;26;20007;-77
2024/04/12 12:35:24;;;;;;;28.95;26.70;;;16.90;99.90;;;;;;5377800;26;20032;-77
2024/04/12 12:37:55;;;;;;;32.38;29.75;;;17.10;99.90;;;;;;5385673;26;20000;-75
2024/04/12 12:40:22;;;;;;;31.27;28.88;;;17.20;99.90;;;;;;5344606;26;20027;-76
2024/04/12 12:42:55;;;;;;;31.08;28.98;;;17.10;99.90;;;;;;5373928;26;20088;-79
2024/04/12 12:45:24;;;;;;;31.05;28.80;;;17.00;99.90;;;;;;5380349;26;20020;-77
2024/04/12 12:47:53;;;;;;;33.28;30.98;;;16.80;99.90;;;;;;5377598;26;20076;-77
2024/04/12 12:50:22;;;;;;;36.38;34.08;;;16.80;99.90;;;;;;5381997;26;20354;-75
2024/04/12 12:52:50;;;;;;;35.15;32.28;;;16.90;99.90;;;;;;5392718;26;19995;-75
2024/04/12 12:55:21;;;;;;;37.17;34.33;;;16.80;99.90;;;;;;5380806;26;20015;-76
2024/04/12 12:58:09;;;;;;;38.30;35.50;;;16.70;99.90;;;;;;5435969;26;20937;-77
2024/04/12 13:00:44;;;;;;;35.40;32.90;;;16.60;99.90;;;;;;5363776;26;20008;-76
2024/04/12 13:03:17;;;;;;;33.88;31.67;;;16.60;99.90;;;;;;5362305;26;20008;-75
2024/04/12 13:05:48;;;;;;;35.65;33.35;;;16.60;99.90;;;;;;5367321;26;20003;-74
2024/04/12 13:08:16;;;;;;;38.83;30.63;;;16.60;99.90;;;;;;5364997;26;20265;-75
2024/04/12 13:10:46;;;;;;;40.50;29.88;;;16.60;99.90;;;;;;5357943;26;22679;-76
2024/04/12 13:13:21;;;;;;;32.85;29.65;;;16.80;99.90;;;;;;5352123;26;20467;-75
2024/04/12 13:15:58;;;;;;;31.25;28.63;;;17.00;99.90;;;;;;5385734;26;20014;-76
2024/04/12 13:18:28;;;;;;;31.55;29.00;;;17.10;99.90;;;;;;5378641;26;20018;-76
2024/04/12 13:20:56;;;;;;;33.67;31.25;;;17.10;99.90;;;;;;5387458;26;20032;-76
2024/04/12 13:23:25;;;;;;;40.30;30.90;;;17.20;99.90;;;;;;5390814;26;20004;-74
2024/04/12 13:25:53;;;;;;;36.13;31.15;;;17.30;99.90;;;;;;5426823;26;20016;-76
2024/04/12 13:28:21;;;;;;;34.13;30.85;;;17.30;99.90;;;;;;5355984;26;20000;-74
2024/04/12 13:30:50;;;;;;;31.17;28.73;;;17.40;99.90;;;;;;5381796;26;20488;-76
2024/04/12 13:33:18;;;;;;;33.05;30.35;;;17.30;99.90;;;;;;5390379;26;20011;-74
2024/04/12 13:35:46;;;;;;;32.20;29.65;;;17.20;99.90;;;;;;5378189;26;20542;-76
2024/04/12 13:38:15;;;;;;;32.95;30.00;;;17.00;99.90;;;;;;5376971;26;20018;-76
2024/04/12 13:40:54;;;;;;;33.25;30.40;;;17.00;99.90;;;;;;5355662;26;20063;-75
2024/04/12 13:43:25;;;;;;;32.35;29.85;;;17.00;99.90;;;;;;5370585;26;20092;-76
2024/04/12 13:51:28;;;;;;;33.10;30.67;;;17.30;99.90;;;;;;5378319;26;20081;-76
2024/04/12 13:53:58;;;;;;;32.83;30.00;;;17.20;99.90;;;;;;5379222;26;20016;-75
2024/04/12 13:56:25;;;;;;;36.40;33.55;;;17.10;99.90;;;;;;5411608;26;20086;-74
2024/04/12 13:59:10;;;;;;;34.00;31.55;;;17.10;99.90;;;;;;5372439;26;20032;-75
2024/04/12 14:01:41;;;;;;;32.67;30.03;;;17.10;99.90;;;;;;5381604;26;20004;-75
2024/04/12 14:04:17;;;;;;;32.60;30.25;;;17.10;99.90;;;;;;5370092;26;21127;-74
2024/04/12 14:06:47;;;;;;;33.75;31.17;;;17.10;99.90;;;;;;5403060;26;19998;-73
2024/04/12 14:09:21;;;;;;;31.90;29.80;;;17.10;99.90;;;;;;5411603;26;20051;-77
2024/04/12 14:11:51;;;;;;;30.98;28.67;;;17.20;99.90;;;;;;5341849;26;20505;-76
2024/04/12 14:14:20;;;;;;;31.98;29.40;;;17.20;99.90;;;;;;5367390;26;20018;-75
2024/04/12 14:16:51;;;;;;;31.75;29.45;;;17.20;99.90;;;;;;5332328;26;20059;-74
2024/04/12 14:19:19;;;;;;;31.02;28.60;;;17.30;99.90;;;;;;5361086;26;20022;-75
2024/04/12 14:21:54;;;;;;;36.60;34.08;;;17.30;99.90;;;;;;5331376;26;20815;-75
2024/04/12 14:27:08;;;;;;;34.60;32.08;;;17.40;99.90;;;;;;5378107;26;20004;-76